createdAt,value
2022-10-22T00:01:12.241Z,99210.95
2022-10-22T00:03:41.539Z,99210.61
2022-10-22T00:06:09.816Z,99202.08
2022-10-22T00:08:38.390Z,99198.61
2022-10-22T00:11:14.881Z,99191.46
2022-10-22T00:13:42.988Z,99194.25
2022-10-22T00:16:11.217Z,99203.13
2022-10-22T00:18:39.781Z,99210.27
2022-10-22T00:21:08.591Z,99213.05
2022-10-22T00:23:36.661Z,99206.44
2022-10-22T00:26:04.730Z,99198.79
2022-10-22T00:28:32.799Z,99193.73
2022-10-22T00:31:01.984Z,99197.91
2022-10-22T00:33:30.583Z,99201.58
2022-10-22T00:35:59.061Z,99209.05
2022-10-22T00:38:27.133Z,99211.31
2022-10-22T00:40:55.467Z,99207.14
2022-10-22T00:43:23.584Z,99202.80
2022-10-22T00:45:51.757Z,99203.31
2022-10-22T00:48:25.971Z,99208.54
2022-10-22T00:51:01.319Z,99208.36
2022-10-22T00:53:39.712Z,99209.05
2022-10-22T00:56:09.439Z,99209.41
2022-10-22T00:58:44.065Z,99213.94
2022-10-22T01:01:20.152Z,99211.31
2022-10-22T01:03:49.432Z,99206.10
2022-10-22T01:06:33.845Z,99205.39
2022-10-22T01:09:23.246Z,99195.48
2022-10-22T01:12:10.471Z,99192.16
2022-10-22T01:14:49.188Z,99193.39
2022-10-22T01:17:36.409Z,99192.52
2022-10-22T01:20:07.859Z,99201.55
2022-10-22T01:23:13.717Z,99200.16
2022-10-22T01:25:56.327Z,99205.56
2022-10-22T01:28:27.265Z,99201.90
2022-10-22T01:30:58.310Z,99194.59
2022-10-22T01:33:27.382Z,99196.52
2022-10-22T01:35:55.576Z,99201.55
2022-10-22T01:38:25.395Z,99203.12
2022-10-22T01:40:54.995Z,99204.34
2022-10-22T01:43:23.391Z,99200.86
2022-10-22T01:45:56.668Z,99199.47
2022-10-22T01:48:55.460Z,99198.78
2022-10-22T01:51:29.880Z,99191.29
2022-10-22T01:54:30.310Z,99188.52
2022-10-22T01:57:26.439Z,99191.84
2022-10-22T02:00:13.659Z,99192.02
2022-10-22T02:02:53.917Z,99180.70
2022-10-22T02:05:25.163Z,99180.02
2022-10-22T02:08:00.098Z,99178.27
2022-10-22T02:10:31.106Z,99184.20
2022-10-22T02:13:01.561Z,99184.89
2022-10-22T02:15:33.523Z,99188.20
2022-10-22T02:18:03.438Z,99187.85
2022-10-22T02:20:37.039Z,99185.08
2022-10-22T02:23:06.033Z,99182.83
2022-10-22T02:25:40.963Z,99188.40
2022-10-22T02:28:19.992Z,99186.33
2022-10-22T02:30:55.025Z,99191.36
2022-10-22T02:33:33.013Z,99183.20
2022-10-22T02:36:03.052Z,99176.93
2022-10-22T02:38:32.037Z,99174.31
2022-10-22T02:41:00.112Z,99169.98
2022-10-22T02:43:29.409Z,99165.45
2022-10-22T02:45:57.791Z,99162.49
2022-10-22T02:48:26.050Z,99162.15
2022-10-22T02:50:54.036Z,99161.45
2022-10-22T02:53:22.010Z,99158.65
2022-10-22T02:55:50.286Z,99157.25
2022-10-22T02:58:18.249Z,99150.81
2022-10-22T03:00:46.470Z,99151.84
2022-10-22T03:03:14.597Z,99152.72
2022-10-22T03:05:42.677Z,99157.06
2022-10-22T03:08:10.702Z,99158.27
2022-10-22T03:10:38.812Z,99162.27
2022-10-22T03:13:06.882Z,99157.94
2022-10-22T03:15:34.957Z,99156.02
2022-10-22T03:18:03.025Z,99155.32
2022-10-22T03:20:31.300Z,99155.85
2022-10-22T03:22:59.372Z,99153.94
2022-10-22T03:25:28.671Z,99153.61
2022-10-22T03:28:03.297Z,99155.35
2022-10-22T03:30:31.675Z,99155.02
2022-10-22T03:32:59.644Z,99150.85
2022-10-22T03:35:27.953Z,99144.95
2022-10-22T03:37:55.992Z,99149.64
2022-10-22T03:40:24.062Z,99149.47
2022-10-22T03:42:53.567Z,99145.13
2022-10-22T03:45:21.640Z,99149.65
2022-10-22T03:47:49.710Z,99155.39
2022-10-22T03:50:17.886Z,99151.92
2022-10-22T03:52:45.956Z,99148.62
2022-10-22T03:55:13.924Z,99149.84
2022-10-22T03:57:42.125Z,99149.32
2022-10-22T04:00:11.319Z,99146.88
2022-10-22T04:02:39.367Z,99142.20
2022-10-22T04:05:08.470Z,99128.96
2022-10-22T04:07:36.846Z,99120.80
2022-10-22T04:10:05.735Z,99112.97
2022-10-22T04:12:33.803Z,99104.80
2022-10-22T04:15:01.875Z,99104.95
2022-10-22T04:17:35.073Z,99107.91
2022-10-22T04:20:04.469Z,99118.00
2022-10-22T04:22:36.506Z,99112.63
2022-10-22T04:25:05.444Z,99110.54
2022-10-22T04:27:34.654Z,99110.20
2022-10-22T04:30:04.346Z,99107.27
2022-10-22T04:32:32.401Z,99102.58
2022-10-22T04:35:00.370Z,99109.02
2022-10-22T04:37:28.544Z,99114.05
2022-10-22T04:39:58.177Z,99114.92
2022-10-22T04:42:26.530Z,99112.34
2022-10-22T04:44:54.499Z,99108.86
2022-10-22T04:47:22.468Z,99103.81
2022-10-22T04:49:50.539Z,99098.61
2022-10-22T04:52:18.508Z,99105.90
2022-10-22T04:54:47.123Z,99103.64
2022-10-22T04:57:15.119Z,99108.85
2022-10-22T04:59:43.102Z,99111.27
2022-10-22T05:02:11.100Z,99110.91
2022-10-22T05:04:39.084Z,99113.88
2022-10-22T05:07:07.143Z,99114.23
2022-10-22T05:09:35.416Z,99113.72
2022-10-22T05:12:03.590Z,99112.32
2022-10-22T05:14:31.661Z,99103.29
2022-10-22T05:17:00.040Z,99109.21
2022-10-22T05:19:31.059Z,99113.04
2022-10-22T05:22:01.415Z,99121.73
2022-10-22T05:24:31.116Z,99124.36
2022-10-22T05:27:00.314Z,99122.80
2022-10-22T05:29:28.486Z,99125.73
2022-10-22T05:31:56.557Z,99125.92
2022-10-22T05:34:24.628Z,99131.48
2022-10-22T05:36:52.597Z,99131.83
2022-10-22T05:39:20.671Z,99138.09
2022-10-22T05:41:48.740Z,99145.38
2022-10-22T05:44:16.709Z,99146.95
2022-10-22T05:46:44.781Z,99152.16
2022-10-22T05:49:15.187Z,99157.36
2022-10-22T05:51:43.584Z,99146.59
2022-10-22T05:54:20.464Z,99147.47
2022-10-22T05:56:48.762Z,99150.77
2022-10-22T05:59:16.920Z,99149.89
2022-10-22T06:01:45.062Z,99152.66
2022-10-22T06:04:13.554Z,99157.89
2022-10-22T06:06:45.191Z,99160.50
2022-10-22T06:09:20.390Z,99158.59
2022-10-22T06:11:49.355Z,99160.49
2022-10-22T06:14:18.345Z,99165.37
2022-10-22T06:16:47.237Z,99170.23
2022-10-22T06:19:18.072Z,99173.52
2022-10-22T06:21:46.956Z,99177.70
2022-10-22T06:24:15.240Z,99173.88
2022-10-22T06:26:43.309Z,99172.83
2022-10-22T06:29:11.588Z,99171.44
2022-10-22T06:31:39.657Z,99174.56
2022-10-22T06:34:11.745Z,99171.09
2022-10-22T06:36:42.981Z,99175.25
2022-10-22T06:39:16.570Z,99180.11
2022-10-22T06:41:44.742Z,99178.36
2022-10-22T06:44:16.092Z,99182.36
2022-10-22T06:46:44.263Z,99186.00
2022-10-22T06:49:14.692Z,99184.09
2022-10-22T06:51:42.967Z,99181.48
2022-10-22T06:54:11.276Z,99184.08
2022-10-22T06:56:39.313Z,99195.90
2022-10-22T06:59:07.386Z,99205.27
2022-10-22T07:01:36.127Z,99199.50
2022-10-22T07:04:05.366Z,99190.27
2022-10-22T07:06:33.351Z,99190.42
2022-10-22T07:09:01.890Z,99192.14
2022-10-22T07:11:38.903Z,99182.89
2022-10-22T07:14:07.896Z,99184.44
2022-10-22T07:16:36.479Z,99184.76
2022-10-22T07:19:05.267Z,99189.10
2022-10-22T07:21:33.250Z,99198.98
2022-10-22T07:24:01.410Z,99208.55
2022-10-22T07:26:32.752Z,99205.75
2022-10-22T07:29:01.649Z,99199.13
2022-10-22T07:31:29.926Z,99195.45
2022-10-22T07:33:58.345Z,99195.26
2022-10-22T07:36:26.477Z,99202.55
2022-10-22T07:38:57.827Z,99206.70
2022-10-22T07:41:28.155Z,99213.99
2022-10-22T07:43:57.438Z,99219.76
2022-10-22T07:46:26.516Z,99224.77
2022-10-22T07:48:54.617Z,99230.81
2022-10-22T07:51:23.302Z,99222.75
2022-10-22T07:53:51.476Z,99222.02
2022-10-22T07:56:19.551Z,99232.59
2022-10-22T07:58:47.517Z,99240.76
2022-10-22T08:01:15.642Z,99226.42
2022-10-22T08:03:44.785Z,99207.59
2022-10-22T08:06:14.868Z,99201.63
2022-10-22T08:08:43.940Z,99206.46
2022-10-22T08:11:12.617Z,99214.45
2022-10-22T08:13:45.138Z,99217.59
2022-10-22T08:16:14.672Z,99222.61
2022-10-22T08:18:42.943Z,99222.79
2022-10-22T08:21:12.967Z,99223.30
2022-10-22T08:23:41.234Z,99233.06
2022-10-22T08:26:09.911Z,99234.98
2022-10-22T08:28:38.400Z,99225.20
2022-10-22T08:31:08.431Z,99215.60
2022-10-22T08:33:38.952Z,99200.08
2022-10-22T08:36:08.259Z,99195.20
2022-10-22T08:38:36.624Z,99183.86
2022-10-22T08:41:13.347Z,99170.08
2022-10-22T08:43:56.524Z,99169.86
2022-10-22T08:46:30.333Z,99169.61
2022-10-22T08:49:02.044Z,99162.61
2022-10-22T08:51:34.742Z,99148.27
2022-10-22T08:54:05.809Z,99153.30
2022-10-22T08:56:37.365Z,99161.60
2022-10-22T08:59:24.989Z,99172.39
2022-10-22T09:01:54.488Z,99183.16
2022-10-22T09:04:33.317Z,99180.54
2022-10-22T09:07:01.302Z,99193.24
2022-10-22T09:09:39.791Z,99201.94
2022-10-22T09:12:10.435Z,99219.54
2022-10-22T09:14:38.711Z,99233.97
2022-10-22T09:17:38.724Z,99244.04
2022-10-22T09:20:27.180Z,99246.08
2022-10-22T09:23:01.503Z,99245.98
2022-10-22T09:25:33.838Z,99242.90
2022-10-22T09:28:02.965Z,99252.89
2022-10-22T09:30:36.468Z,99255.33
2022-10-22T09:33:07.302Z,99248.05
2022-10-22T09:35:45.605Z,99246.20
2022-10-22T09:38:16.043Z,99250.50
2022-10-22T09:40:51.277Z,99246.73
2022-10-22T09:43:20.271Z,99243.61
2022-10-22T09:45:56.124Z,99232.34
2022-10-22T09:48:32.289Z,99218.10
2022-10-22T09:51:18.790Z,99205.86
2022-10-22T09:53:56.180Z,99191.73
2022-10-22T09:56:35.618Z,99190.25
2022-10-22T09:59:04.712Z,99184.06
2022-10-22T10:01:35.963Z,99182.43
2022-10-22T10:04:09.564Z,99178.69
2022-10-22T10:06:41.206Z,99172.85
2022-10-22T10:09:17.449Z,99175.25
2022-10-22T10:12:05.107Z,99176.27
2022-10-22T10:14:45.363Z,99182.21
2022-10-22T10:17:19.354Z,99197.06
2022-10-22T10:20:18.472Z,99192.52
2022-10-22T10:23:03.132Z,99196.02
2022-10-22T10:26:06.329Z,99194.97
2022-10-22T10:28:48.530Z,99187.60
2022-10-22T10:31:40.259Z,99183.36
2022-10-22T10:34:45.807Z,99181.75
2022-10-22T10:37:25.368Z,99180.50
2022-10-22T10:40:08.162Z,99182.06
2022-10-22T10:43:08.593Z,99191.85
2022-10-22T10:46:04.274Z,99193.23
2022-10-22T10:48:58.497Z,99193.24
2022-10-22T10:51:51.427Z,99187.81
2022-10-22T10:54:35.651Z,99192.15
2022-10-22T10:57:19.747Z,99189.94
2022-10-22T11:00:17.002Z,99189.98
2022-10-22T11:03:03.916Z,99182.05
2022-10-22T11:06:04.043Z,99184.63
2022-10-22T11:08:36.968Z,99180.53
2022-10-22T11:11:11.884Z,99176.64
2022-10-22T11:13:49.654Z,99180.98
2022-10-22T11:16:23.664Z,99188.15
2022-10-22T11:19:22.667Z,99191.33
2022-10-22T11:22:06.400Z,99186.42
2022-10-22T11:24:43.584Z,99185.73
2022-10-22T11:27:47.039Z,99182.95
2022-10-22T11:30:20.588Z,99188.73
2022-10-22T11:32:58.794Z,99186.46
2022-10-22T11:35:31.985Z,99184.55
2022-10-22T11:38:02.104Z,99185.27
2022-10-22T11:40:30.175Z,99178.48
2022-10-22T11:43:04.393Z,99176.75
2022-10-22T11:45:40.053Z,99180.11
2022-10-22T11:48:11.183Z,99178.40
2022-10-22T11:50:42.943Z,99178.25
2022-10-22T11:53:13.606Z,99178.23
2022-10-22T11:55:51.705Z,99176.60
2022-10-22T11:58:30.809Z,99181.15
2022-10-22T12:01:01.645Z,99181.00
2022-10-22T12:03:32.384Z,99178.40
2022-10-22T12:06:12.431Z,99168.61
2022-10-22T12:08:50.596Z,99170.38
2022-10-22T12:11:36.940Z,99172.67
2022-10-22T12:14:20.043Z,99168.70
2022-10-22T12:17:10.463Z,99172.23
2022-10-22T12:19:40.371Z,99172.83
2022-10-22T12:22:17.147Z,99170.79
2022-10-22T12:24:49.621Z,99170.67
2022-10-22T12:27:34.282Z,99172.13
2022-10-22T12:30:18.429Z,99171.33
2022-10-22T12:32:46.502Z,99170.27
2022-10-22T12:35:26.861Z,99167.94
2022-10-22T12:37:57.696Z,99168.45
2022-10-22T12:40:27.304Z,99157.63
2022-10-22T12:43:01.808Z,99156.05
2022-10-22T12:45:33.278Z,99155.88
2022-10-22T12:48:22.034Z,99151.32
2022-10-22T12:50:53.490Z,99152.05
2022-10-22T12:53:45.620Z,99150.70
2022-10-22T12:56:16.558Z,99149.14
2022-10-22T12:58:52.984Z,99150.04
2022-10-22T13:01:21.408Z,99145.53
2022-10-22T13:04:19.660Z,99142.41
2022-10-22T13:06:50.931Z,99145.81
2022-10-22T13:09:27.052Z,99152.11
2022-10-22T13:12:01.817Z,99156.16
2022-10-22T13:14:33.064Z,99158.96
2022-10-22T13:17:36.361Z,99158.95
2022-10-22T13:20:16.110Z,99157.77
2022-10-22T13:23:00.437Z,99158.45
2022-10-22T13:25:30.554Z,99152.80
2022-10-22T13:28:13.395Z,99159.13
2022-10-22T13:30:57.031Z,99161.98
2022-10-22T13:33:29.738Z,99164.99
2022-10-22T13:35:58.191Z,99169.05
2022-10-22T13:38:28.106Z,99171.73
2022-10-22T13:40:57.099Z,99165.67
2022-10-22T13:43:25.862Z,99160.54
2022-10-22T13:45:57.953Z,99160.73
2022-10-22T13:48:28.378Z,99157.27
2022-10-22T13:50:56.658Z,99158.70
2022-10-22T13:53:27.900Z,99156.32
2022-10-22T13:55:55.877Z,99154.59
2022-10-22T13:58:25.293Z,99153.73
2022-10-22T14:00:59.182Z,99154.39
2022-10-22T14:03:32.165Z,99152.30
2022-10-22T14:06:01.057Z,99150.75
2022-10-22T14:08:29.336Z,99153.02
2022-10-22T14:10:57.611Z,99155.48
2022-10-22T14:13:26.912Z,99151.52
2022-10-22T14:15:55.186Z,99148.09
2022-10-22T14:18:31.690Z,99152.77
2022-10-22T14:21:05.257Z,99150.14
2022-10-22T14:23:35.559Z,99145.64
2022-10-22T14:26:04.815Z,99144.97
2022-10-22T14:28:40.951Z,99148.15
2022-10-22T14:31:15.450Z,99142.39
2022-10-22T14:33:44.043Z,99147.91
2022-10-22T14:36:14.680Z,99146.00
2022-10-22T14:38:46.231Z,99146.91
2022-10-22T14:41:21.161Z,99142.39
2022-10-22T14:43:50.013Z,99137.88
2022-10-22T14:46:19.234Z,99134.70
2022-10-22T14:48:47.729Z,99135.55
2022-10-22T14:51:18.770Z,99133.64
2022-10-22T14:53:47.763Z,99132.58
2022-10-22T14:56:18.702Z,99134.36
2022-10-22T14:58:46.874Z,99131.38
2022-10-22T15:01:15.177Z,99132.96
2022-10-22T15:03:43.323Z,99137.27
2022-10-22T15:06:11.805Z,99139.00
2022-10-22T15:08:39.908Z,99140.80
2022-10-22T15:11:11.326Z,99140.29
2022-10-22T15:13:41.549Z,99141.23
2022-10-22T15:16:11.769Z,99145.98
2022-10-22T15:18:39.843Z,99151.55
2022-10-22T15:21:17.948Z,99151.17
2022-10-22T15:23:46.024Z,99155.38
2022-10-22T15:26:14.705Z,99158.54
2022-10-22T15:28:43.338Z,99165.55
2022-10-22T15:31:14.427Z,99161.73
2022-10-22T15:33:43.848Z,99164.66
2022-10-22T15:36:14.875Z,99169.17
2022-10-22T15:38:43.317Z,99176.70
2022-10-22T15:41:13.593Z,99177.76
2022-10-22T15:43:42.470Z,99182.66
2022-10-22T15:46:14.449Z,99185.11
2022-10-22T15:48:43.320Z,99188.09
2022-10-22T15:51:17.024Z,99188.22
2022-10-22T15:53:52.571Z,99190.36
2022-10-22T15:56:20.867Z,99191.14
2022-10-22T15:58:54.243Z,99186.63
2022-10-22T16:01:22.779Z,99182.77
2022-10-22T16:04:00.379Z,99184.13
2022-10-22T16:06:36.479Z,99182.00
2022-10-22T16:09:08.468Z,99180.29
2022-10-22T16:11:37.967Z,99177.49
2022-10-22T16:14:06.637Z,99172.79
2022-10-22T16:16:36.857Z,99173.34
2022-10-22T16:19:04.939Z,99178.35
2022-10-22T16:21:32.997Z,99180.33
2022-10-22T16:24:06.133Z,99181.79
2022-10-22T16:26:35.898Z,99182.86
2022-10-22T16:29:05.507Z,99187.84
2022-10-22T16:31:33.580Z,99189.25
2022-10-22T16:34:01.646Z,99191.99
2022-10-22T16:36:29.721Z,99188.55
2022-10-22T16:38:57.715Z,99194.89
2022-10-22T16:41:33.949Z,99193.86
2022-10-22T16:44:05.198Z,99191.09
2022-10-22T16:46:34.323Z,99193.65
2022-10-22T16:49:02.569Z,99197.64
2022-10-22T16:51:30.640Z,99199.61
2022-10-22T16:53:58.916Z,99205.10
2022-10-22T16:56:27.470Z,99206.04
2022-10-22T16:58:57.721Z,99208.53
2022-10-22T17:01:29.173Z,99210.42
2022-10-22T17:04:00.491Z,99208.73
2022-10-22T17:06:29.194Z,99217.28
2022-10-22T17:08:57.356Z,99220.83
2022-10-22T17:11:25.654Z,99225.91
2022-10-22T17:13:54.835Z,99228.67
2022-10-22T17:16:24.776Z,99229.73
2022-10-22T17:18:56.321Z,99228.92
2022-10-22T17:21:25.121Z,99227.09
2022-10-22T17:23:57.394Z,99232.07
2022-10-22T17:26:27.113Z,99232.25
2022-10-22T17:28:55.672Z,99236.95
2022-10-22T17:31:29.476Z,99234.02
2022-10-22T17:33:57.959Z,99226.52
2022-10-22T17:36:30.444Z,99234.06
2022-10-22T17:39:05.675Z,99229.33
2022-10-22T17:41:36.917Z,99229.46
2022-10-22T17:44:09.294Z,99219.33
2022-10-22T17:46:37.979Z,99216.37
2022-10-22T17:49:13.306Z,99215.87
2022-10-22T17:51:41.490Z,99215.04
2022-10-22T17:54:10.199Z,99219.18
2022-10-22T17:56:40.394Z,99221.25
2022-10-22T17:59:12.875Z,99216.20
2022-10-22T18:01:45.777Z,99213.08
2022-10-22T18:04:17.005Z,99216.77
2022-10-22T18:06:47.226Z,99215.70
2022-10-22T18:09:18.657Z,99214.56
2022-10-22T18:11:49.617Z,99213.35
2022-10-22T18:14:19.631Z,99213.43
2022-10-22T18:16:48.213Z,99213.79
2022-10-22T18:19:19.870Z,99214.98
2022-10-22T18:21:48.145Z,99213.34
2022-10-22T18:24:17.285Z,99211.07
2022-10-22T18:26:45.516Z,99214.60
2022-10-22T18:29:18.605Z,99214.98
2022-10-22T18:31:47.983Z,99216.58
2022-10-22T18:34:18.891Z,99218.98
2022-10-22T18:36:49.753Z,99224.25
2022-10-22T18:39:18.335Z,99221.69
2022-10-22T18:41:48.996Z,99218.74
2022-10-22T18:44:18.174Z,99224.71
2022-10-22T18:46:46.266Z,99217.86
2022-10-22T18:49:21.096Z,99222.95
2022-10-22T18:51:52.837Z,99226.12
2022-10-22T18:54:23.668Z,99229.43
2022-10-22T18:57:02.577Z,99231.36
2022-10-22T18:59:31.610Z,99233.61
2022-10-22T19:01:59.876Z,99232.05
2022-10-22T19:04:33.766Z,99234.71
2022-10-22T19:07:01.876Z,99234.73
2022-10-22T19:09:30.655Z,99233.67
2022-10-22T19:12:00.261Z,99235.69
2022-10-22T19:14:28.433Z,99238.48
2022-10-22T19:16:56.811Z,99244.81
2022-10-22T19:19:24.882Z,99243.80
2022-10-22T19:21:53.543Z,99244.30
2022-10-22T19:24:21.643Z,99244.77
2022-10-22T19:26:50.331Z,99250.67
2022-10-22T19:29:20.342Z,99251.75
2022-10-22T19:31:51.014Z,99251.96
2022-10-22T19:34:20.784Z,99254.41
2022-10-22T19:36:51.811Z,99256.30
2022-10-22T19:39:20.491Z,99259.63
2022-10-22T19:41:48.686Z,99258.77
2022-10-22T19:44:16.859Z,99262.98
2022-10-22T19:46:45.036Z,99263.38
2022-10-22T19:49:16.542Z,99270.69
2022-10-22T19:51:47.115Z,99266.54
2022-10-22T19:54:18.678Z,99270.05
2022-10-22T19:56:47.972Z,99274.98
2022-10-22T19:59:16.949Z,99278.10
2022-10-22T20:01:45.036Z,99275.84
2022-10-22T20:04:16.073Z,99281.07
2022-10-22T20:06:44.459Z,99279.32
2022-10-22T20:09:13.373Z,99280.59
2022-10-22T20:11:41.617Z,99283.22
2022-10-22T20:14:09.689Z,99283.20
2022-10-22T20:16:38.485Z,99284.95
2022-10-22T20:19:07.825Z,99286.73
2022-10-22T20:21:35.848Z,99287.08
2022-10-22T20:24:04.594Z,99286.59
2022-10-22T20:26:32.710Z,99288.66
2022-10-22T20:29:00.983Z,99288.09
2022-10-22T20:31:33.069Z,99287.93
2022-10-22T20:34:02.045Z,99286.40
2022-10-22T20:36:31.894Z,99288.36
2022-10-22T20:39:03.193Z,99289.74
2022-10-22T20:41:31.274Z,99295.11
2022-10-22T20:43:59.243Z,99298.06
2022-10-22T20:46:30.990Z,99296.86
2022-10-22T20:49:00.300Z,99301.04
2022-10-22T20:51:28.991Z,99301.23
2022-10-22T20:53:57.433Z,99301.20
2022-10-22T20:56:26.767Z,99306.44
2022-10-22T20:59:04.691Z,99306.81
2022-10-22T21:01:34.381Z,99309.98
2022-10-22T21:04:02.461Z,99310.52
2022-10-22T21:06:30.623Z,99310.16
2022-10-22T21:08:58.759Z,99315.89
2022-10-22T21:11:26.972Z,99317.98
2022-10-22T21:13:54.939Z,99317.30
2022-10-22T21:16:23.320Z,99319.05
2022-10-22T21:18:51.697Z,99320.79
2022-10-22T21:21:20.177Z,99321.63
2022-10-22T21:23:50.314Z,99318.15
2022-10-22T21:26:20.108Z,99319.89
2022-10-22T21:28:48.389Z,99322.52
2022-10-22T21:31:26.194Z,99325.16
2022-10-22T21:33:54.462Z,99322.70
2022-10-22T21:36:23.719Z,99327.23
2022-10-22T21:38:52.672Z,99323.75
2022-10-22T21:41:22.977Z,99324.63
2022-10-22T21:43:51.879Z,99328.45
2022-10-22T21:46:22.292Z,99328.23
2022-10-22T21:49:01.323Z,99331.20
2022-10-22T21:51:35.639Z,99330.89
2022-10-22T21:54:03.830Z,99331.96
2022-10-22T21:56:34.855Z,99337.52
2022-10-22T21:59:04.869Z,99334.86
2022-10-22T22:01:33.975Z,99335.57
2022-10-22T22:04:02.752Z,99336.77
2022-10-22T22:06:33.511Z,99330.31
2022-10-22T22:09:04.158Z,99336.26
2022-10-22T22:11:32.808Z,99340.98
2022-10-22T22:14:01.080Z,99336.81
2022-10-22T22:16:32.226Z,99340.52
2022-10-22T22:21:32.256Z,99342.11
2022-10-22T22:24:00.329Z,99339.11
2022-10-22T22:26:30.197Z,99342.23
2022-10-22T22:28:59.965Z,99341.91
2022-10-22T22:31:37.652Z,99344.91
2022-10-22T22:34:12.992Z,99348.03
2022-10-22T22:36:43.622Z,99345.70
2022-10-22T22:39:14.486Z,99349.37
2022-10-22T22:41:43.656Z,99346.05
2022-10-22T22:44:12.849Z,99347.48
2022-10-22T22:46:41.232Z,99351.84
2022-10-22T22:49:09.817Z,99355.84
2022-10-22T22:51:37.887Z,99356.69
2022-10-22T22:54:05.863Z,99356.17
2022-10-22T22:56:34.814Z,99355.15
2022-10-22T22:59:04.148Z,99360.38
2022-10-22T23:01:37.957Z,99362.46
2022-10-22T23:04:16.488Z,99366.48
2022-10-22T23:06:45.452Z,99366.82
2022-10-22T23:09:15.452Z,99367.55
2022-10-22T23:11:45.293Z,99370.50
2022-10-22T23:14:15.719Z,99373.80
2022-10-22T23:16:49.423Z,99374.31
2022-10-22T23:19:20.261Z,99377.14
2022-10-22T23:21:54.268Z,99383.06
2022-10-22T23:24:28.970Z,99389.00
2022-10-22T23:27:01.139Z,99389.68
2022-10-22T23:29:31.900Z,99390.56
2022-10-22T23:32:01.712Z,99393.38
2022-10-22T23:34:31.611Z,99393.90
2022-10-22T23:37:00.339Z,99396.70
2022-10-22T23:39:29.256Z,99402.61
2022-10-22T23:41:58.072Z,99400.01
2022-10-22T23:44:26.472Z,99399.50
2022-10-22T23:46:55.363Z,99401.77
2022-10-22T23:49:23.435Z,99403.69
2022-10-22T23:51:51.402Z,99405.41
2022-10-22T23:54:19.470Z,99409.60
2022-10-22T23:56:47.544Z,99416.94
2022-10-22T23:59:16.284Z,99420.64
